AAY1975 KSYR-KBNA
Flight info
| Callsign | AAY1975 |
|---|---|
| Flight time | N/A |
| Altitude | 36000 |
| Route | DCT SYR DCT PTAKI DCT STUBN DCT PSB Q71 GEFFS DCT HVQ DCT CUTRR PASLY5 |
| Aircraft | B738/M-SDE2E3FGHIRWXY/LB1 |
Departure
| Time | 2026-04-23 19:27 |
|---|---|
| Airport | Syracuse Hancock International Airport (KSYR) |
Arrival
| Time | N/A |
|---|---|
| Airport | Nashville International Airport (KBNA) |
| Time | Latitude | Longitude | Altitude | Speed | Heading |
|---|---|---|---|---|---|
| 2026-04-23 19:06 | 43.11244 | -76.10994 | 422 ft | 0 kts | 8° |
| 2026-04-23 19:19 | 43.11216 | -76.11002 | 413 ft | 2 kts | 22° |
| 2026-04-23 19:19 | 43.11202 | -76.11013 | 413 ft | 2 kts | 52° |
| 2026-04-23 19:20 | 43.11194 | -76.11040 | 413 ft | 0 kts | 79° |
| 2026-04-23 19:22 | 43.11204 | -76.10954 | 413 ft | 11 kts | 81° |
| 2026-04-23 19:23 | 43.11185 | -76.10847 | 414 ft | 13 kts | 143° |
| 2026-04-23 19:23 | 43.11093 | -76.10820 | 415 ft | 14 kts | 176° |
| 2026-04-23 19:23 | 43.11017 | -76.10762 | 412 ft | 13 kts | 117° |
| 2026-04-23 19:24 | 43.11014 | -76.10508 | 414 ft | 16 kts | 87° |
| 2026-04-23 19:24 | 43.11020 | -76.10331 | 409 ft | 20 kts | 87° |
| 2026-04-23 19:24 | 43.11031 | -76.09973 | 408 ft | 9 kts | 88° |
| 2026-04-23 19:25 | 43.11033 | -76.09913 | 407 ft | 10 kts | 87° |
| 2026-04-23 19:25 | 43.11045 | -76.09510 | 408 ft | 22 kts | 88° |
| 2026-04-23 19:26 | 43.11018 | -76.09269 | 408 ft | 0 kts | 160° |
| 2026-04-23 19:27 | 43.10927 | -76.09397 | 414 ft | 27 kts | 266° |
| 2026-04-23 19:27 | 43.10775 | -76.13260 | 1041 ft | 202 kts | 269° |
| 2026-04-23 19:28 | 43.10606 | -76.17270 | 2996 ft | 215 kts | 269° |
| 2026-04-23 19:28 | 43.11315 | -76.21226 | 3821 ft | 223 kts | 292° |
| 2026-04-23 19:29 | 43.11329 | -76.23344 | 3976 ft | 235 kts | 254° |
| 2026-04-23 19:29 | 43.08575 | -76.26138 | 3997 ft | 271 kts | 206° |
| 2026-04-23 19:30 | 43.05150 | -76.28486 | 4029 ft | 274 kts | 211° |
| 2026-04-23 19:30 | 43.03482 | -76.29731 | 4019 ft | 270 kts | 212° |
| 2026-04-23 19:30 | 43.00364 | -76.32168 | 5375 ft | 263 kts | 214° |
| 2026-04-23 19:31 | 42.98754 | -76.33440 | 6051 ft | 271 kts | 215° |
| 2026-04-23 19:31 | 42.97101 | -76.34747 | 6718 ft | 277 kts | 216° |
| 2026-04-23 19:31 | 42.95414 | -76.36082 | 7365 ft | 282 kts | 216° |
| 2026-04-23 19:31 | 42.93698 | -76.37444 | 8034 ft | 288 kts | 217° |
| 2026-04-23 19:32 | 42.91943 | -76.38836 | 8716 ft | 294 kts | 217° |
| 2026-04-23 19:32 | 42.90161 | -76.40250 | 9383 ft | 298 kts | 218° |
| 2026-04-23 19:32 | 42.88387 | -76.41653 | 10049 ft | 298 kts | 218° |
| 2026-04-23 19:32 | 42.86591 | -76.43071 | 10672 ft | 299 kts | 218° |
| 2026-04-23 19:33 | 42.84792 | -76.44493 | 11311 ft | 299 kts | 219° |
| 2026-04-23 19:33 | 42.82967 | -76.45940 | 11792 ft | 311 kts | 219° |
| 2026-04-23 19:33 | 42.78961 | -76.49134 | 12137 ft | 355 kts | 217° |
| 2026-04-23 19:34 | 42.76773 | -76.50862 | 12528 ft | 368 kts | 217° |
| 2026-04-23 19:34 | 42.74536 | -76.52617 | 13090 ft | 375 kts | 217° |
| 2026-04-23 19:34 | 42.69964 | -76.56200 | 14351 ft | 382 kts | 217° |
| 2026-04-23 19:35 | 42.67651 | -76.58018 | 14934 ft | 386 kts | 217° |
| 2026-04-23 19:35 | 42.65317 | -76.59852 | 15542 ft | 389 kts | 217° |
| 2026-04-23 19:35 | 42.62960 | -76.61689 | 16130 ft | 392 kts | 217° |
| 2026-04-23 19:35 | 42.60573 | -76.63528 | 16709 ft | 396 kts | 217° |
| 2026-04-23 19:36 | 42.58164 | -76.65375 | 17298 ft | 399 kts | 217° |
| 2026-04-23 19:36 | 42.55773 | -76.67207 | 17867 ft | 402 kts | 217° |
| 2026-04-23 19:36 | 42.53319 | -76.69086 | 18437 ft | 404 kts | 217° |
| 2026-04-23 19:36 | 42.50859 | -76.70969 | 18932 ft | 407 kts | 217° |
| 2026-04-23 19:37 | 42.48385 | -76.72863 | 19412 ft | 410 kts | 217° |
| 2026-04-23 19:37 | 42.45900 | -76.74763 | 19942 ft | 411 kts | 217° |
| 2026-04-23 19:37 | 42.43401 | -76.76674 | 20426 ft | 414 kts | 217° |
| 2026-04-23 19:37 | 42.40881 | -76.78599 | 20891 ft | 417 kts | 217° |